Morgan Ray — WDF6085 — position and weather

sailwx.info

Track history (hours):
 
Tides and Currents Weather Stations Pressure Air Temp Water Temp Dewpoint Dewpoint Depression Visibility Wind Speed Wind Dir Waves Ship Positions

Morgan Ray

Owner: Daigle Towing Service LLC., Belle Chasse, LA. More information available from US FCC via Universal Licensing System and Coast Guard Vessel Documentation Center.

Last reported at 2017-Apr-15 02:30 UTC. Time now 2017-May-01 02:18 UTC.
Position N 29°35' W 090°37'.
Warning: this ship's position is 15 days out of date.

Length 20 m; draft 2 m.

Type: Tug. MMSI: 367470470.

Date/timePositionNaut miles runAvg speedWind from/ knotsBaromVisibWave heightAir tempDewpointWater temp
2017-Apr-15 02:30N 29°35' W 090°37'4 7.7
2017-Apr-15 02:00N 29°36' W 090°41'2 4.3
2017-Apr-15 01:30N 29°35' W 090°43'2 3.1
2017-Apr-15 01:00N 29°34' W 090°42'0 0.0
2017-Apr-15 00:30N 29°34' W 090°42'1 2.0
2017-Apr-15 00:00N 29°34' W 090°43'3 5.4
2017-Apr-14 23:30N 29°33' W 090°46'3 6.0
2017-Apr-14 23:00N 29°32' W 090°49'67 4.7
2017-Apr-14 08:52N 29°49' W 092°04'2 5.5
2017-Apr-14 08:30N 29°48' W 092°06'3 5.4
2017-Apr-14 08:00N 29°47' W 092°09'3 5.2
2017-Apr-14 07:30N 29°47' W 092°12'2 3.6
2017-Apr-14 07:00N 29°48' W 092°14'2 4.5
2017-Apr-14 06:30N 29°49' W 092°16'3 5.4
2017-Apr-14 06:00N 29°50' W 092°18'2 4.5
2017-Apr-14 05:30N 29°51' W 092°21'46 5.4
2017-Apr-13 20:52N 30°00' W 093°14'1 4.0
2017-Apr-13 20:30N 30°02' W 093°14'2 4.7
2017-Apr-13 20:00N 30°04' W 093°16'2 4.6
2017-Apr-13 19:30N 30°05' W 093°18'1 2.9
2017-Apr-13 19:00N 30°06' W 093°19'2 4.0
2017-Apr-13 18:30N 30°08' W 093°20'3 5.4
2017-Apr-13 18:00N 30°10' W 093°19'3 5.5
2017-Apr-13 17:30N 30°12' W 093°17'2 3.7
2017-Apr-13 17:00N 30°13' W 093°15'2 2.8
2017-Apr-13 16:26N 30°15' W 093°15'0 0.1
2017-Apr-13 15:29N 30°15' W 093°15'0 0.0
2017-Apr-12 18:22N 30°15' W 093°15'0 0.0
2017-Apr-12 17:58N 30°15' W 093°15'0 0.0
2017-Apr-12 17:19N 30°15' W 093°15'0 0.0
2017-Apr-12 16:48N 30°15' W 093°15'0 0.0
2017-Apr-12 16:25N 30°15' W 093°15'0 0.0
2017-Apr-12 15:57N 30°15' W 093°15'0 0.0
2017-Apr-12 14:08N 30°15' W 093°15'0 0.1
2017-Apr-12 12:31N 30°14' W 093°15'0 3.3
2017-Apr-12 12:30N 30°14' W 093°15'1 2.6
2017-Apr-12 12:00N 30°13' W 093°15'0 0.5
2017-Apr-12 11:30N 30°13' W 093°15'0 0.0
2017-Apr-12 11:00N 30°13' W 093°15'0 0.0
2017-Apr-12 10:30N 30°13' W 093°15'0 0.0
2017-Apr-12 09:46N 30°13' W 093°15'0 0.0
2017-Apr-12 09:30N 30°13' W 093°15'0 0.0
2017-Apr-12 08:29N 30°13' W 093°15'0 0.0
2017-Apr-12 07:57N 30°13' W 093°15'0 0.0
2017-Apr-12 07:28N 30°13' W 093°15'0 0.0
2017-Apr-12 07:00N 30°13' W 093°15'0 0.0
2017-Apr-12 06:30N 30°13' W 093°15'0 0.0
2017-Apr-12 05:53N 30°13' W 093°15'0 0.0
2017-Apr-12 05:30N 30°13' W 093°15'0 0.0
2017-Apr-12 04:49N 30°13' W 093°15'0 0.0
2017-Apr-12 04:22N 30°13' W 093°15'0 0.0
2017-Apr-12 04:00N 30°13' W 093°15'0 0.0
2017-Apr-12 03:30N 30°13' W 093°15'0 0.0
2017-Apr-12 02:48N 30°13' W 093°15'0 0.0
2017-Apr-12 02:28N 30°13' W 093°15'0 0.0
2017-Apr-12 01:59N 30°13' W 093°15'0 0.0
2017-Apr-12 01:30N 30°13' W 093°15'0 0.0
2017-Apr-12 01:00N 30°13' W 093°15'0 0.0
2017-Apr-12 00:23N 30°13' W 093°15'0 0.0
2017-Apr-11 23:55N 30°13' W 093°15'0 0.0
2017-Apr-11 23:18N 30°13' W 093°15'0 0.0
2017-Apr-11 23:00N 30°13' W 093°15'0 0.0
2017-Apr-11 20:28N 30°13' W 093°15'0 0.0
2017-Apr-11 20:00N 30°13' W 093°15'0 0.0
2017-Apr-11 19:30N 30°13' W 093°15'0 0.0
2017-Apr-11 19:00N 30°13' W 093°15'0 0.8
2017-Apr-11 18:30N 30°13' W 093°15'0 0.9
2017-Apr-11 18:00N 30°13' W 093°15'1 2.7
2017-Apr-11 17:30N 30°12' W 093°16'2 3.6
2017-Apr-11 17:00N 30°11' W 093°18'2 3.6
2017-Apr-11 16:30N 30°10' W 093°19'2 3.1
2017-Apr-11 16:00N 30°09' W 093°20'2 3.9
2017-Apr-11 15:30N 30°07' W 093°20'1 2.7
2017-Apr-11 15:00N 30°06' W 093°18'1 2.3
2017-Apr-11 14:30N 30°05' W 093°18'3 2.7
2017-Apr-11 13:30N 30°03' W 093°16'2 4.0
2017-Apr-11 13:00N 30°02' W 093°14'2 4.0
2017-Apr-11 12:30N 29°60' W 093°13'2 4.3
2017-Apr-11 12:00N 29°58' W 093°12'2 4.2
2017-Apr-11 11:29N 29°57' W 093°10'41 4.5
2017-Apr-11 02:17N 29°52' W 092°22'1 4.8
2017-Apr-11 02:00N 29°51' W 092°22'2 4.8
2017-Apr-11 01:30N 29°50' W 092°19'2 3.9
2017-Apr-11 01:00N 29°49' W 092°17'2 4.7
2017-Apr-11 00:30N 29°48' W 092°15'2 4.4
2017-Apr-11 00:00N 29°47' W 092°13'1 1.8
2017-Apr-10 23:30N 29°47' W 092°12'0 0.6
2017-Apr-10 23:00N 29°47' W 092°11'1 1.7
2017-Apr-10 22:30N 29°47' W 092°10'3 5.1
2017-Apr-10 22:00N 29°47' W 092°08'3 5.3
2017-Apr-10 21:30N 29°48' W 092°05'3 5.3
2017-Apr-10 21:00N 29°49' W 092°02'3 5.2
2017-Apr-10 20:30N 29°50' W 091°59'62 4.4
2017-Apr-10 06:14N 29°32' W 090°50'1 5.0
2017-Apr-10 05:57N 29°32' W 090°49'2 4.9
2017-Apr-10 05:30N 29°32' W 090°46'2 4.3
2017-Apr-10 05:00N 29°34' W 090°45'2 3.4
2017-Apr-10 04:30N 29°35' W 090°43'2 3.4
2017-Apr-10 04:00N 29°36' W 090°43'1 2.6
2017-Apr-10 03:30N 29°36' W 090°41'2 3.7
2017-Apr-10 03:00N 29°36' W 090°39'2 4.8
2017-Apr-10 02:30N 29°35' W 090°37'3 4.4
2017-Apr-10 01:49N 29°34' W 090°33'  
Track history (hours):
 
Tides and Currents Weather Stations Pressure Air Temp Water Temp Dewpoint Dewpoint Depression Visibility Wind Speed Wind Dir Waves Ship Positions

Morgan Ray

Owner: Daigle Towing Service LLC., Belle Chasse, LA. More information available from US FCC via Universal Licensing System and Coast Guard Vessel Documentation Center.

Last reported at 2017-Apr-15 02:30 UTC. Time now 2017-May-01 02:18 UTC.
Position N 29°35' W 090°37'.
Warning: this ship's position is 15 days out of date.

Length 20 m; draft 2 m.

Type: Tug. MMSI: 367470470.

Date/timePositionNaut miles runAvg speedWind from/ knotsBaromVisibWave heightAir tempDewpointWater temp
2017-Apr-15 02:30N 29°35' W 090°37'4 7.7
2017-Apr-15 02:00N 29°36' W 090°41'2 4.3
2017-Apr-15 01:30N 29°35' W 090°43'2 3.1
2017-Apr-15 01:00N 29°34' W 090°42'0 0.0
2017-Apr-15 00:30N 29°34' W 090°42'1 2.0
2017-Apr-15 00:00N 29°34' W 090°43'3 5.4
2017-Apr-14 23:30N 29°33' W 090°46'3 6.0
2017-Apr-14 23:00N 29°32' W 090°49'67 4.7
2017-Apr-14 08:52N 29°49' W 092°04'2 5.5
2017-Apr-14 08:30N 29°48' W 092°06'3 5.4
2017-Apr-14 08:00N 29°47' W 092°09'3 5.2
2017-Apr-14 07:30N 29°47' W 092°12'2 3.6
2017-Apr-14 07:00N 29°48' W 092°14'2 4.5
2017-Apr-14 06:30N 29°49' W 092°16'3 5.4
2017-Apr-14 06:00N 29°50' W 092°18'2 4.5
2017-Apr-14 05:30N 29°51' W 092°21'46 5.4
2017-Apr-13 20:52N 30°00' W 093°14'1 4.0
2017-Apr-13 20:30N 30°02' W 093°14'2 4.7
2017-Apr-13 20:00N 30°04' W 093°16'2 4.6
2017-Apr-13 19:30N 30°05' W 093°18'1 2.9
2017-Apr-13 19:00N 30°06' W 093°19'2 4.0
2017-Apr-13 18:30N 30°08' W 093°20'3 5.4
2017-Apr-13 18:00N 30°10' W 093°19'3 5.5
2017-Apr-13 17:30N 30°12' W 093°17'2 3.7
2017-Apr-13 17:00N 30°13' W 093°15'2 2.8
2017-Apr-13 16:26N 30°15' W 093°15'0 0.1
2017-Apr-13 15:29N 30°15' W 093°15'0 0.0
2017-Apr-12 18:22N 30°15' W 093°15'0 0.0
2017-Apr-12 17:58N 30°15' W 093°15'0 0.0
2017-Apr-12 17:19N 30°15' W 093°15'0 0.0
2017-Apr-12 16:48N 30°15' W 093°15'0 0.0
2017-Apr-12 16:25N 30°15' W 093°15'0 0.0
2017-Apr-12 15:57N 30°15' W 093°15'0 0.0
2017-Apr-12 14:08N 30°15' W 093°15'0 0.1
2017-Apr-12 12:31N 30°14' W 093°15'0 3.3
2017-Apr-12 12:30N 30°14' W 093°15'1 2.6
2017-Apr-12 12:00N 30°13' W 093°15'0 0.5
2017-Apr-12 11:30N 30°13' W 093°15'0 0.0
2017-Apr-12 11:00N 30°13' W 093°15'0 0.0
2017-Apr-12 10:30N 30°13' W 093°15'0 0.0
2017-Apr-12 09:46N 30°13' W 093°15'0 0.0
2017-Apr-12 09:30N 30°13' W 093°15'0 0.0
2017-Apr-12 08:29N 30°13' W 093°15'0 0.0
2017-Apr-12 07:57N 30°13' W 093°15'0 0.0
2017-Apr-12 07:28N 30°13' W 093°15'0 0.0
2017-Apr-12 07:00N 30°13' W 093°15'0 0.0
2017-Apr-12 06:30N 30°13' W 093°15'0 0.0
2017-Apr-12 05:53N 30°13' W 093°15'0 0.0
2017-Apr-12 05:30N 30°13' W 093°15'0 0.0
2017-Apr-12 04:49N 30°13' W 093°15'0 0.0
2017-Apr-12 04:22N 30°13' W 093°15'0 0.0
2017-Apr-12 04:00N 30°13' W 093°15'0 0.0
2017-Apr-12 03:30N 30°13' W 093°15'0 0.0
2017-Apr-12 02:48N 30°13' W 093°15'0 0.0
2017-Apr-12 02:28N 30°13' W 093°15'0 0.0
2017-Apr-12 01:59N 30°13' W 093°15'0 0.0
2017-Apr-12 01:30N 30°13' W 093°15'0 0.0
2017-Apr-12 01:00N 30°13' W 093°15'0 0.0
2017-Apr-12 00:23N 30°13' W 093°15'0 0.0
2017-Apr-11 23:55N 30°13' W 093°15'0 0.0
2017-Apr-11 23:18N 30°13' W 093°15'0 0.0
2017-Apr-11 23:00N 30°13' W 093°15'0 0.0
2017-Apr-11 20:28N 30°13' W 093°15'0 0.0
2017-Apr-11 20:00N 30°13' W 093°15'0 0.0
2017-Apr-11 19:30N 30°13' W 093°15'0 0.0
2017-Apr-11 19:00N 30°13' W 093°15'0 0.8
2017-Apr-11 18:30N 30°13' W 093°15'0 0.9
2017-Apr-11 18:00N 30°13' W 093°15'1 2.7
2017-Apr-11 17:30N 30°12' W 093°16'2 3.6
2017-Apr-11 17:00N 30°11' W 093°18'2 3.6
2017-Apr-11 16:30N 30°10' W 093°19'2 3.1
2017-Apr-11 16:00N 30°09' W 093°20'2 3.9
2017-Apr-11 15:30N 30°07' W 093°20'1 2.7
2017-Apr-11 15:00N 30°06' W 093°18'1 2.3
2017-Apr-11 14:30N 30°05' W 093°18'3 2.7
2017-Apr-11 13:30N 30°03' W 093°16'2 4.0
2017-Apr-11 13:00N 30°02' W 093°14'2 4.0
2017-Apr-11 12:30N 29°60' W 093°13'2 4.3
2017-Apr-11 12:00N 29°58' W 093°12'2 4.2
2017-Apr-11 11:29N 29°57' W 093°10'41 4.5
2017-Apr-11 02:17N 29°52' W 092°22'1 4.8
2017-Apr-11 02:00N 29°51' W 092°22'2 4.8
2017-Apr-11 01:30N 29°50' W 092°19'2 3.9
2017-Apr-11 01:00N 29°49' W 092°17'2 4.7
2017-Apr-11 00:30N 29°48' W 092°15'2 4.4
2017-Apr-11 00:00N 29°47' W 092°13'1 1.8
2017-Apr-10 23:30N 29°47' W 092°12'0 0.6
2017-Apr-10 23:00N 29°47' W 092°11'1 1.7
2017-Apr-10 22:30N 29°47' W 092°10'3 5.1
2017-Apr-10 22:00N 29°47' W 092°08'3 5.3
2017-Apr-10 21:30N 29°48' W 092°05'3 5.3
2017-Apr-10 21:00N 29°49' W 092°02'3 5.2
2017-Apr-10 20:30N 29°50' W 091°59'62 4.4
2017-Apr-10 06:14N 29°32' W 090°50'1 5.0
2017-Apr-10 05:57N 29°32' W 090°49'2 4.9
2017-Apr-10 05:30N 29°32' W 090°46'2 4.3
2017-Apr-10 05:00N 29°34' W 090°45'2 3.4
2017-Apr-10 04:30N 29°35' W 090°43'2 3.4
2017-Apr-10 04:00N 29°36' W 090°43'1 2.6
2017-Apr-10 03:30N 29°36' W 090°41'2 3.7
2017-Apr-10 03:00N 29°36' W 090°39'2 4.8
2017-Apr-10 02:30N 29°35' W 090°37'3 4.4
2017-Apr-10 01:49N 29°34' W 090°33'  

Dump ship's entire track history